Time;durP1;ratioP1;P1;durP2;ratioP2;P2;SDS_P1;SDS_P2;PMS_P1;PMS_P2;Temp;Humidity;BMP_temperature;BMP_pressure;BME280_temperature;BME280_humidity;BME280_pressure;Samples;Min_cycle;Max_cycle;Signal;HPM_P1;HPM_P2
2021/05/02 00:01:43;;;;;;;7.62;5.30;;;;;;;38.82;39.57;161425.30;1766806;79;21217;-86
2021/05/02 00:04:16;;;;;;;6.75;4.65;;;;;;;39.01;39.23;161478.91;1769780;79;21677;-85
2021/05/02 00:06:49;;;;;;;7.12;5.20;;;;;;;39.16;39.11;161519.19;1765294;80;21320;-84
2021/05/02 00:09:21;;;;;;;7.80;5.10;;;;;;;39.19;39.14;161527.19;1766563;80;21391;-83
2021/05/02 00:11:54;;;;;;;6.92;4.97;;;;;;;39.11;39.24;161505.77;1764088;79;21355;-84
2021/05/02 00:14:29;;;;;;;5.95;4.75;;;;;;;39.07;39.26;161493.64;1766693;79;21423;-83
2021/05/02 00:17:01;;;;;;;6.83;5.25;;;;;;;39.00;39.25;161476.22;1775250;79;21926;-85
2021/05/02 00:19:35;;;;;;;7.33;5.33;;;;;;;39.02;39.18;161481.59;1764164;79;21429;-86
2021/05/02 00:22:08;;;;;;;6.72;4.72;;;;;;;38.84;39.31;161432.00;1744697;80;21784;-83
2021/05/02 00:24:41;;;;;;;6.67;4.78;;;;;;;38.79;39.43;161417.25;1764618;80;21299;-82
2021/05/02 00:27:13;;;;;;;7.28;4.87;;;;;;;38.71;39.52;161397.13;1766433;79;21773;-85
2021/05/02 00:29:47;;;;;;;7.72;5.03;;;;;;;38.77;39.45;161413.25;1766698;80;21363;-85
2021/05/02 00:32:20;;;;;;;7.85;5.30;;;;;;;38.73;39.49;161402.50;1764609;80;21933;-85
2021/05/02 00:34:53;;;;;;;6.95;5.25;;;;;;;38.65;39.59;161381.08;1764845;80;21257;-85
2021/05/02 00:37:26;;;;;;;6.20;4.58;;;;;;;38.59;39.62;161364.91;1768042;79;21375;-86
2021/05/02 00:39:59;;;;;;;9.23;5.33;;;;;;;38.65;39.45;161379.66;1762166;80;21918;-84
2021/05/02 00:42:32;;;;;;;7.78;4.65;;;;;;;38.67;39.44;161386.39;1760514;80;21862;-87
2021/05/02 00:45:07;;;;;;;5.15;4.35;;;;;;;38.64;39.46;161376.97;1761927;80;21304;-85
2021/05/02 00:47:45;;;;;;;5.92;4.22;;;;;;;38.48;39.65;161334.13;1760584;80;21364;-85
2021/05/02 00:50:20;;;;;;;6.28;4.95;;;;;;;38.52;39.63;161346.17;1760594;80;21426;-85
2021/05/02 00:53:06;;;;;;;7.00;4.47;;;;;;;38.62;39.41;161372.97;1768198;79;21379;-85
2021/05/02 00:55:48;;;;;;;8.25;4.30;;;;;;;38.51;39.56;161343.50;1763856;80;21927;-85
2021/05/02 00:58:38;;;;;;;;;;;;;;;38.50;39.59;161339.44;1785464;80;21220;-85
2021/05/02 01:01:10;;;;;;;5.33;4.20;;;;;;;38.41;39.74;161316.70;1757216;79;20297;-85
2021/05/02 01:03:42;;;;;;;6.17;4.10;;;;;;;38.30;39.91;161285.86;1771934;80;21678;-86
2021/05/02 01:06:15;;;;;;;5.37;3.95;;;;;;;38.32;39.88;161292.53;1769897;80;21169;-86
2021/05/02 01:08:58;;;;;;;5.35;3.72;;;;;;;38.29;39.98;161284.53;1789183;79;21752;-86
2021/05/02 01:11:28;;;;;;;5.45;4.00;;;;;;;38.30;39.99;161287.22;1789553;80;21665;-86
2021/05/02 01:14:01;;;;;;;5.92;4.37;;;;;;;38.24;40.10;161269.80;1776488;80;21223;-85
2021/05/02 01:16:35;;;;;;;6.15;4.10;;;;;;;38.27;40.06;161277.81;1764454;80;21162;-85
2021/05/02 01:19:59;;;;;;;6.05;4.12;;;;;;;38.26;40.10;161275.13;1773505;79;21324;-82
2021/05/02 01:22:33;;;;;;;5.20;4.00;;;;;;;38.24;40.02;161269.80;1765173;79;21347;-83
2021/05/02 01:25:06;;;;;;;6.97;4.28;;;;;;;38.22;40.10;161264.44;1764840;80;21347;-84
2021/05/02 01:27:39;;;;;;;6.05;4.00;;;;;;;38.14;40.23;161244.28;1765193;80;21386;-82
2021/05/02 01:30:12;;;;;;;7.85;3.95;;;;;;;38.15;40.29;161245.59;1771569;79;21312;-82
2021/05/02 01:32:44;;;;;;;7.78;4.17;;;;;;;38.10;40.27;161232.22;1761986;80;21371;-84
2021/05/02 01:35:17;;;;;;;5.10;3.67;;;;;;;38.16;40.25;161249.64;1763579;80;21162;-85
2021/05/02 01:37:50;;;;;;;5.55;3.95;;;;;;;38.12;40.25;161237.59;1761912;79;21221;-84
2021/05/02 01:40:23;;;;;;;6.08;3.90;;;;;;;38.16;40.16;161248.28;1761360;80;22312;-83
2021/05/02 01:42:56;;;;;;;6.08;3.47;;;;;;;38.56;39.72;161355.55;1762313;80;21926;-84
2021/05/02 01:45:28;;;;;;;4.47;3.45;;;;;;;38.09;40.18;161229.55;1762568;80;21138;-83
2021/05/02 01:48:07;;;;;;;6.03;4.17;;;;;;;38.14;40.13;161244.28;1774378;79;21311;-83
2021/05/02 01:50:50;;;;;;;4.35;3.62;;;;;;;38.16;40.13;161249.64;1762375;79;21360;-84
2021/05/02 01:53:23;;;;;;;4.87;3.20;;;;;;;38.02;40.31;161212.13;1765484;79;21225;-80
2021/05/02 01:55:55;;;;;;;4.10;3.15;;;;;;;38.26;40.12;161276.48;1766560;80;21307;-84
2021/05/02 01:58:28;;;;;;;4.90;2.98;;;;;;;38.00;40.24;161206.75;1763609;80;21217;-84
2021/05/02 02:01:04;;;;;;;5.45;3.10;;;;;;;37.99;40.23;161204.08;1770994;79;21223;-84
2021/05/02 02:03:38;;;;;;;5.87;3.17;;;;;;;38.06;40.19;161221.50;1762749;80;21447;-84
2021/05/02 02:06:10;;;;;;;5.40;4.05;;;;;;;38.03;40.26;161214.81;1764671;80;21308;-84
2021/05/02 02:08:44;;;;;;;4.85;3.00;;;;;;;37.95;40.37;161192.02;1737753;80;21209;-85
2021/05/02 02:11:18;;;;;;;3.77;2.80;;;;;;;37.84;40.57;161161.23;1761647;80;21225;-83
2021/05/02 02:13:52;;;;;;;5.12;2.83;;;;;;;37.70;40.75;161124.98;1770646;80;21300;-85
2021/05/02 02:16:25;;;;;;;3.83;2.83;;;;;;;37.68;40.88;161119.63;1773969;79;21267;-86
2021/05/02 02:18:58;;;;;;;3.47;2.80;;;;;;;37.66;40.83;161112.94;1744263;81;21249;-87
2021/05/02 02:21:30;;;;;;;3.52;3.20;;;;;;;37.68;40.93;161119.63;1764123;81;21202;-86
2021/05/02 02:24:03;;;;;;;3.08;2.37;;;;;;;37.79;40.73;161149.12;1765209;81;21198;-86
2021/05/02 02:26:57;;;;;;;3.35;2.50;;;;;;;37.77;40.78;161143.77;1767416;79;21221;-85
2021/05/02 02:29:30;;;;;;;4.00;2.70;;;;;;;37.68;40.93;161118.30;1745259;81;21210;-84
2021/05/02 02:32:04;;;;;;;5.87;3.30;;;;;;;37.67;40.96;161115.63;1739455;81;21202;-84
2021/05/02 02:34:39;;;;;;;3.62;2.45;;;;;;;37.63;41.05;161106.25;1717433;81;21836;-84
2021/05/02 02:37:17;;;;;;;3.22;2.42;;;;;;;37.60;41.03;161098.20;1732369;81;21462;-84
2021/05/02 02:39:54;;;;;;;3.75;2.72;;;;;;;37.51;41.22;161072.75;1746558;81;21182;-84
2021/05/02 02:42:28;;;;;;;5.72;2.47;;;;;;;37.51;41.28;161074.11;1759302;80;21199;-85
2021/05/02 02:45:07;;;;;;;4.20;2.25;;;;;;;37.77;40.98;161143.77;1756103;81;21313;-85
2021/05/02 02:47:45;;;;;;;4.15;2.52;;;;;;;37.49;41.27;161067.44;1741567;81;21387;-85
2021/05/02 02:50:19;;;;;;;4.22;2.77;;;;;;;37.47;41.34;161063.38;1731466;83;21396;-85
2021/05/02 02:52:54;;;;;;;3.67;2.37;;;;;;;37.47;41.34;161063.38;1731275;83;21230;-85
2021/05/02 02:55:27;;;;;;;3.47;2.60;;;;;;;37.50;41.38;161070.13;1731785;81;21748;-84
2021/05/02 02:58:03;;;;;;;2.85;2.35;;;;;;;37.52;41.33;161075.42;1754935;81;21661;-83
2021/05/02 03:00:37;;;;;;;4.28;2.30;;;;;;;37.47;41.42;161063.38;1761606;81;21238;-83
2021/05/02 03:03:19;;;;;;;3.10;2.47;;;;;;;37.49;41.38;161068.75;1748990;81;21167;-83
2021/05/02 03:05:51;;;;;;;3.85;2.52;;;;;;;37.44;41.49;161055.33;1734825;81;21313;-83
2021/05/02 03:08:23;;;;;;;4.97;2.20;;;;;;;37.45;41.46;161056.70;1760691;81;21210;-83
2021/05/02 03:10:57;;;;;;;4.28;2.37;;;;;;;37.75;41.15;161137.03;1761383;81;21218;-83
2021/05/02 03:13:29;;;;;;;3.45;2.30;;;;;;;37.53;41.37;161078.11;1755359;81;22425;-83
2021/05/02 03:16:04;;;;;;;4.30;2.15;;;;;;;37.46;41.43;161060.70;1760652;81;21736;-83
2021/05/02 03:19:22;;;;;;;3.47;2.00;;;;;;;37.47;41.40;161063.38;1731886;81;21170;-83
2021/05/02 03:22:10;;;;;;;3.90;2.40;;;;;;;37.47;41.41;161062.06;1731318;81;21299;-82
2021/05/02 03:24:45;;;;;;;3.40;2.20;;;;;;;37.51;41.40;161074.11;1731465;81;21408;-83
2021/05/02 03:27:23;;;;;;;4.90;2.42;;;;;;;37.51;41.41;161072.75;1744138;81;21273;-84
2021/05/02 03:29:57;;;;;;;3.77;2.52;;;;;;;37.48;41.46;161066.06;1761003;81;21269;-83
2021/05/02 03:32:31;;;;;;;3.02;2.30;;;;;;;37.41;41.60;161045.97;1760424;81;21210;-82
2021/05/02 03:35:07;;;;;;;4.35;2.55;;;;;;;37.57;41.40;161088.84;1761295;81;21297;-84
2021/05/02 03:37:39;;;;;;;4.83;2.90;;;;;;;37.50;41.48;161070.13;1760500;81;21568;-82
2021/05/02 03:40:12;;;;;;;2.25;2.05;;;;;;;37.47;41.53;161062.06;1760838;81;21170;-82
2021/05/02 03:42:44;;;;;;;3.92;2.27;;;;;;;37.47;41.60;161062.06;1753140;81;21625;-82
2021/05/02 03:45:16;;;;;;;3.35;2.30;;;;;;;37.45;41.71;161058.02;1731565;81;21186;-83
2021/05/02 03:47:48;;;;;;;4.15;2.10;;;;;;;37.44;41.81;161055.33;1739006;81;21214;-83
2021/05/02 03:50:21;;;;;;;2.80;2.20;;;;;;;37.48;41.82;161066.06;1731443;83;21345;-82
2021/05/02 03:52:54;;;;;;;5.83;2.22;;;;;;;37.49;41.92;161067.44;1731201;83;21238;-83
2021/05/02 03:55:26;;;;;;;5.45;2.62;;;;;;;37.52;41.86;161075.42;1731170;83;21230;-82
2021/05/02 03:57:58;;;;;;;3.22;2.35;;;;;;;37.66;41.59;161114.31;1754415;81;21206;-82
2021/05/02 04:00:31;;;;;;;3.58;2.17;;;;;;;37.63;41.77;161104.89;1758259;81;21175;-82
2021/05/02 04:03:03;;;;;;;4.03;2.47;;;;;;;37.69;41.62;161122.31;1749964;81;21178;-81
2021/05/02 04:05:37;;;;;;;3.80;2.58;;;;;;;37.68;41.76;161118.30;1760933;81;21241;-81
2021/05/02 04:08:10;;;;;;;2.45;2.20;;;;;;;37.79;41.60;161149.12;1751476;80;21222;-81
2021/05/02 04:10:42;;;;;;;2.65;2.20;;;;;;;37.69;41.78;161120.98;1762120;80;21233;-81
2021/05/02 04:13:14;;;;;;;2.55;2.00;;;;;;;37.60;41.93;161096.89;1733910;81;21244;-81
2021/05/02 04:15:47;;;;;;;2.85;1.90;;;;;;;37.83;41.43;161159.88;1732048;83;21186;-81
2021/05/02 04:18:19;;;;;;;3.85;2.30;;;;;;;37.73;41.68;161131.72;1757850;81;21209;-81
2021/05/02 04:20:52;;;;;;;3.90;2.25;;;;;;;37.72;41.76;161130.36;1759210;81;21752;-81
2021/05/02 04:23:24;;;;;;;2.92;2.40;;;;;;;37.78;41.71;161146.45;1762217;81;21163;-81
2021/05/02 04:25:56;;;;;;;4.12;2.00;;;;;;;37.74;41.79;161134.34;1746637;81;21166;-81
2021/05/02 04:28:28;;;;;;;3.27;2.52;;;;;;;37.87;41.56;161170.59;1732405;83;21357;-81
2021/05/02 04:31:01;;;;;;;4.83;2.10;;;;;;;37.80;41.67;161151.81;1731838;81;21221;-81
2021/05/02 04:33:34;;;;;;;3.65;2.33;;;;;;;37.86;41.65;161167.92;1732168;83;21372;-81
2021/05/02 04:36:07;;;;;;;2.47;2.12;;;;;;;37.90;41.59;161177.28;1736991;81;21163;-81
2021/05/02 04:38:39;;;;;;;3.50;2.60;;;;;;;37.99;41.44;161202.75;1731966;83;21206;-80
2021/05/02 04:41:12;;;;;;;4.67;2.15;;;;;;;38.05;41.36;161220.17;1750403;81;21208;-80
2021/05/02 04:43:44;;;;;;;5.05;2.42;;;;;;;38.06;41.38;161221.50;1747538;82;21200;-81
2021/05/02 04:46:17;;;;;;;3.22;2.20;;;;;;;38.06;41.44;161221.50;1749126;81;21665;-80
2021/05/02 04:48:49;;;;;;;3.45;2.08;;;;;;;37.98;41.64;161200.06;1742440;81;21139;-81
2021/05/02 04:51:22;;;;;;;4.30;2.35;;;;;;;37.95;41.66;161192.02;1753242;81;21162;-81
2021/05/02 04:53:54;;;;;;;3.62;2.35;;;;;;;37.96;41.67;161193.39;1733318;81;21202;-81
2021/05/02 04:56:26;;;;;;;4.50;2.33;;;;;;;37.87;41.85;161170.59;1744093;81;21150;-80
2021/05/02 04:58:58;;;;;;;2.33;2.12;;;;;;;37.88;41.82;161171.92;1732187;81;21182;-81
2021/05/02 05:01:30;;;;;;;4.40;2.72;;;;;;;37.84;41.95;161161.23;1732070;83;21867;-81
2021/05/02 05:04:03;;;;;;;5.10;2.20;;;;;;;37.95;41.87;161192.02;1758909;81;21216;-81
2021/05/02 05:06:36;;;;;;;3.80;2.60;;;;;;;37.90;41.96;161177.28;1747854;81;21226;-81
2021/05/02 05:09:08;;;;;;;5.60;2.50;;;;;;;37.97;41.95;161197.39;1752095;81;21324;-81
2021/05/02 05:11:40;;;;;;;3.22;2.52;;;;;;;37.98;41.97;161201.39;1751636;81;21740;-80
2021/05/02 05:14:13;;;;;;;3.65;2.47;;;;;;;37.99;42.03;161204.08;1741366;81;21198;-80
2021/05/02 05:16:46;;;;;;;3.65;2.25;;;;;;;38.04;42.05;161216.13;1754518;81;21458;-82
2021/05/02 05:19:18;;;;;;;2.33;2.10;;;;;;;37.92;42.21;161183.97;1750156;81;21714;-84
2021/05/02 05:21:51;;;;;;;5.72;2.50;;;;;;;37.93;42.32;161185.34;1743583;81;21581;-83
2021/05/02 05:24:23;;;;;;;7.40;2.47;;;;;;;38.05;42.17;161220.17;1747066;81;21206;-83
2021/05/02 05:26:55;;;;;;;3.85;2.72;;;;;;;38.15;42.06;161245.59;1756566;81;21288;-83
2021/05/02 05:29:28;;;;;;;4.47;2.70;;;;;;;38.16;42.03;161248.28;1744318;81;21375;-83
2021/05/02 05:32:00;;;;;;;5.35;2.50;;;;;;;38.34;41.80;161297.91;1746538;81;21332;-82
2021/05/02 05:34:32;;;;;;;5.20;2.58;;;;;;;38.26;41.95;161275.13;1765485;81;21384;-82
2021/05/02 05:37:05;;;;;;;4.05;2.33;;;;;;;38.17;42.13;161252.33;1759772;80;21169;-82
2021/05/02 05:39:40;;;;;;;2.70;2.45;;;;;;;38.25;41.96;161272.48;1752656;81;21765;-82
2021/05/02 05:42:12;;;;;;;5.58;2.60;;;;;;;38.25;42.00;161272.48;1745972;81;22509;-81
2021/05/02 05:44:44;;;;;;;5.60;2.65;;;;;;;38.18;42.27;161255.02;1749797;81;21151;-82
2021/05/02 05:47:17;;;;;;;3.95;2.62;;;;;;;38.33;42.11;161295.22;1747685;81;21380;-83
2021/05/02 05:49:50;;;;;;;4.08;2.70;;;;;;;38.29;42.10;161284.53;1757572;81;21138;-81
2021/05/02 05:52:22;;;;;;;9.03;3.00;;;;;;;38.56;42.09;161356.86;1759060;81;21332;-82
2021/05/02 05:54:55;;;;;;;2.80;2.35;;;;;;;38.58;41.89;161360.91;1738921;81;21419;-82
2021/05/02 05:57:27;;;;;;;5.95;2.58;;;;;;;38.39;42.17;161311.33;1740844;80;21211;-82
2021/05/02 06:00:00;;;;;;;7.28;2.58;;;;;;;38.54;42.00;161351.50;1741667;81;21689;-80
2021/05/02 06:02:32;;;;;;;5.75;2.83;;;;;;;38.60;41.90;161366.28;1748589;81;21336;-79
2021/05/02 06:05:05;;;;;;;7.72;3.35;;;;;;;38.66;41.94;161383.70;1761621;81;21384;-83
2021/05/02 06:07:38;;;;;;;6.08;3.12;;;;;;;38.66;42.09;161383.70;1748912;81;21254;-81
2021/05/02 06:10:13;;;;;;;5.22;2.72;;;;;;;39.06;41.71;161492.28;1747195;81;21368;-81
2021/05/02 06:12:46;;;;;;;4.33;3.27;;;;;;;39.30;41.14;161556.69;1753217;80;21142;-82
2021/05/02 06:15:18;;;;;;;5.70;3.08;;;;;;;39.41;40.79;161584.86;1746814;80;21281;-85
2021/05/02 06:17:50;;;;;;;4.85;2.95;;;;;;;39.52;40.53;161614.41;1748028;80;21368;-83
2021/05/02 06:20:23;;;;;;;6.50;3.60;;;;;;;39.47;40.57;161600.98;1741158;81;21914;-83
2021/05/02 06:22:55;;;;;;;5.70;3.00;;;;;;;39.51;40.58;161611.72;1741804;81;21420;-85
2021/05/02 06:25:27;;;;;;;4.80;3.00;;;;;;;39.56;40.46;161625.16;1743996;81;21927;-84
2021/05/02 06:28:00;;;;;;;5.87;3.47;;;;;;;39.58;40.50;161631.84;1744926;81;21373;-83
2021/05/02 06:30:33;;;;;;;6.80;3.10;;;;;;;39.59;40.50;161633.16;1742084;81;21841;-82
2021/05/02 06:33:06;;;;;;;4.62;3.35;;;;;;;39.57;40.41;161629.16;1720385;81;21696;-82
2021/05/02 06:35:39;;;;;;;9.05;4.00;;;;;;;39.66;40.27;161651.97;1741531;81;21992;-82
2021/05/02 06:38:11;;;;;;;6.12;3.75;;;;;;;39.93;39.87;161727.09;1744075;80;21235;-83
2021/05/02 06:40:44;;;;;;;8.00;3.30;;;;;;;40.03;39.63;161752.59;1722275;81;21372;-81
2021/05/02 06:43:17;;;;;;;6.53;3.35;;;;;;;39.91;39.70;161719.03;1744836;81;21178;-81
2021/05/02 06:45:52;;;;;;;4.65;3.22;;;;;;;39.76;39.78;161678.78;1741808;80;21376;-82
2021/05/02 06:48:25;;;;;;;8.43;3.77;;;;;;;39.71;39.82;161665.34;1746315;80;21254;-83
2021/05/02 06:50:59;;;;;;;5.90;3.60;;;;;;;39.82;39.80;161694.84;1748146;81;21918;-83
2021/05/02 06:53:36;;;;;;;8.80;3.98;;;;;;;39.76;39.84;161678.78;1745210;81;21384;-84
2021/05/02 06:56:09;;;;;;;6.67;3.87;;;;;;;39.69;39.85;161661.34;1742616;81;21206;-81
2021/05/02 06:58:47;;;;;;;7.53;3.47;;;;;;;39.73;39.79;161670.72;1745827;81;21308;-81
2021/05/02 07:01:26;;;;;;;6.78;4.33;;;;;;;39.70;39.77;161662.72;1745096;81;21257;-83
2021/05/02 07:03:59;;;;;;;9.45;4.40;;;;;;;39.76;39.65;161680.09;1745169;81;21705;-83
2021/05/02 07:06:35;;;;;;;6.95;4.33;;;;;;;39.72;39.70;161668.03;1751073;80;21210;-83
2021/05/02 07:09:08;;;;;;;21.23;4.85;;;;;;;39.75;39.71;161676.09;1743850;81;21245;-83
2021/05/02 07:11:40;;;;;;;17.35;4.30;;;;;;;40.18;39.18;161794.17;1747133;81;21463;-81
2021/05/02 07:14:13;;;;;;;7.53;4.25;;;;;;;40.13;39.22;161779.42;1754128;81;21214;-82
2021/05/02 07:16:45;;;;;;;5.97;3.75;;;;;;;40.16;39.18;161787.48;1759514;81;21903;-83
2021/05/02 07:19:20;;;;;;;6.10;3.85;;;;;;;40.07;39.37;161763.34;1750309;81;21384;-83
2021/05/02 07:22:05;;;;;;;6.35;4.37;;;;;;;39.93;39.76;161727.09;1746122;80;21880;-81
2021/05/02 07:24:37;;;;;;;7.05;3.92;;;;;;;39.94;39.60;161729.78;1745440;80;21332;-81
2021/05/02 07:27:09;;;;;;;5.55;3.83;;;;;;;39.93;39.55;161727.09;1746575;81;21289;-81
2021/05/02 07:29:43;;;;;;;5.50;3.70;;;;;;;39.89;39.57;161714.98;1745572;81;21332;-83
2021/05/02 07:32:16;;;;;;;7.92;4.25;;;;;;;39.21;40.32;161532.56;1751014;80;21272;-84
2021/05/02 07:34:49;;;;;;;8.50;4.75;;;;;;;39.07;40.60;161493.64;1751891;81;21190;-83
2021/05/02 07:37:22;;;;;;;7.67;4.20;;;;;;;38.99;40.83;161472.22;1752631;80;21824;-83
2021/05/02 07:39:55;;;;;;;7.65;3.90;;;;;;;38.98;40.86;161469.53;1749079;81;21465;-83
2021/05/02 07:42:28;;;;;;;8.35;3.95;;;;;;;39.20;40.58;161528.56;1747930;80;21195;-84
2021/05/02 07:45:01;;;;;;;8.00;4.50;;;;;;;38.95;40.97;161461.47;1745812;80;21368;-82
2021/05/02 07:47:35;;;;;;;7.53;4.58;;;;;;;39.01;41.04;161477.53;1751290;81;21360;-82
2021/05/02 07:50:11;;;;;;;8.83;4.83;;;;;;;39.08;41.04;161497.70;1751952;81;21383;-82
2021/05/02 07:52:44;;;;;;;7.47;4.28;;;;;;;39.08;41.02;161496.39;1747145;80;21364;-83
2021/05/02 07:55:17;;;;;;;9.20;4.85;;;;;;;39.05;40.83;161489.64;1750085;81;21908;-82
2021/05/02 07:57:49;;;;;;;12.82;6.03;;;;;;;39.02;40.90;161481.59;1747323;80;21301;-82
2021/05/02 08:00:23;;;;;;;11.22;4.53;;;;;;;39.04;40.95;161485.59;1753252;81;22025;-82
2021/05/02 08:02:58;;;;;;;6.85;4.60;;;;;;;39.01;41.03;161477.53;1747492;81;21372;-82
2021/05/02 08:05:31;;;;;;;12.93;5.70;;;;;;;39.04;40.93;161485.59;1746112;81;21325;-80
2021/05/02 08:08:07;;;;;;;13.50;5.72;;;;;;;39.11;40.83;161504.44;1741281;80;21218;-83
2021/05/02 08:10:40;;;;;;;13.00;5.53;;;;;;;39.14;40.69;161513.81;1746253;81;21210;-83
2021/05/02 08:13:18;;;;;;;11.28;5.37;;;;;;;39.10;40.72;161501.75;1751360;81;21768;-84
2021/05/02 08:15:50;;;;;;;11.12;7.08;;;;;;;39.10;40.76;161503.08;1749640;81;21203;-80
2021/05/02 08:18:23;;;;;;;14.13;6.62;;;;;;;39.05;40.88;161489.64;1748285;81;21250;-81
2021/05/02 08:20:58;;;;;;;15.90;6.15;;;;;;;39.06;40.90;161492.28;1749466;80;21318;-80
2021/05/02 08:23:31;;;;;;;6.92;4.78;;;;;;;39.29;40.68;161554.05;1747107;81;21757;-84
2021/05/02 08:26:11;;;;;;;8.65;5.55;;;;;;;39.25;40.65;161543.31;1753513;81;21431;-81
2021/05/02 08:28:45;;;;;;;10.50;5.50;;;;;;;39.18;40.80;161523.19;1747891;81;21162;-82
2021/05/02 08:31:17;;;;;;;8.83;5.40;;;;;;;39.16;40.94;161517.81;1752589;80;21312;-80
2021/05/02 08:33:50;;;;;;;10.93;5.90;;;;;;;39.23;40.81;161537.94;1750791;81;21344;-81
2021/05/02 08:36:24;;;;;;;15.68;7.42;;;;;;;39.25;40.76;161543.31;1746731;81;21431;-82
2021/05/02 08:38:56;;;;;;;13.78;7.42;;;;;;;39.22;40.54;161535.25;1744570;81;21242;-82
2021/05/02 08:41:29;;;;;;;11.05;6.42;;;;;;;39.23;40.51;161536.62;1748788;80;21387;-81
2021/05/02 08:44:04;;;;;;;9.68;6.15;;;;;;;39.26;40.59;161544.63;1746107;81;21206;-80
2021/05/02 08:46:38;;;;;;;10.38;6.60;;;;;;;39.23;40.58;161536.62;1744075;81;21237;-81
2021/05/02 08:49:11;;;;;;;12.05;6.92;;;;;;;39.20;40.67;161528.56;1756988;81;21284;-83
2021/05/02 08:51:50;;;;;;;8.70;6.10;;;;;;;39.11;40.77;161504.44;1753140;80;21225;-87
2021/05/02 08:54:28;;;;;;;14.35;6.85;;;;;;;39.25;40.65;161541.94;1740921;81;21423;-80
2021/05/02 08:57:01;;;;;;;10.00;7.35;;;;;;;39.24;40.45;161540.63;1737668;82;21198;-80
2021/05/02 08:59:34;;;;;;;11.73;7.28;;;;;;;39.25;40.33;161541.94;1758319;81;21402;-82
2021/05/02 09:02:07;;;;;;;11.48;7.15;;;;;;;39.33;40.11;161563.44;1760789;81;21238;-80
2021/05/02 09:04:42;;;;;;;13.93;7.17;;;;;;;39.33;40.06;161563.44;1762552;80;21167;-83
2021/05/02 09:07:17;;;;;;;12.23;6.85;;;;;;;39.27;40.05;161547.31;1650822;84;21361;-80
2021/05/02 09:09:49;;;;;;;10.28;7.05;;;;;;;39.25;40.14;161541.94;1712662;83;21867;-82
2021/05/02 09:12:26;;;;;;;12.47;7.47;;;;;;;39.26;40.36;161544.63;1736457;81;21218;-81
2021/05/02 09:15:03;;;;;;;10.85;6.55;;;;;;;39.23;40.52;161537.94;1741556;81;21167;-82
2021/05/02 09:17:54;;;;;;;14.35;7.15;;;;;;;39.21;40.69;161531.25;1734022;81;21205;-81
2021/05/02 09:20:54;;;;;;;12.15;7.30;;;;;;;39.33;40.58;161564.75;1729877;82;21317;-80
2021/05/02 09:23:39;;;;;;;11.45;7.22;;;;;;;39.43;40.55;161590.23;1739916;81;21170;-81
2021/05/02 09:26:27;;;;;;;18.27;8.60;;;;;;;39.28;40.81;161551.36;1749923;80;21213;-82
2021/05/02 09:29:02;;;;;;;19.15;9.73;;;;;;;39.27;41.00;161548.69;1726977;81;22431;-82
2021/05/02 09:31:41;;;;;;;11.88;9.18;;;;;;;39.27;41.05;161547.31;1744230;81;21242;-81
2021/05/02 09:34:15;;;;;;;17.52;9.88;;;;;;;39.21;41.14;161531.25;1739938;81;21404;-80
2021/05/02 09:37:00;;;;;;;15.93;10.00;;;;;;;39.16;41.39;161519.19;1752835;81;21258;-80
2021/05/02 09:39:50;;;;;;;18.77;9.38;;;;;;;39.26;41.39;161544.63;1745166;81;21312;-80
2021/05/02 09:42:30;;;;;;;19.57;10.88;;;;;;;39.28;41.19;161550.00;1688671;83;21247;-81
2021/05/02 09:45:01;;;;;;;18.82;10.13;;;;;;;39.30;41.05;161555.37;1742240;81;21197;-81
2021/05/02 09:47:39;;;;;;;14.13;9.25;;;;;;;39.28;41.02;161550.00;1740862;82;21665;-79
2021/05/02 09:50:23;;;;;;;14.47;8.88;;;;;;;39.23;40.94;161537.94;1742805;82;21288;-80
2021/05/02 09:53:06;;;;;;;13.60;8.60;;;;;;;39.25;40.88;161541.94;1741816;82;21308;-80
2021/05/02 09:55:44;;;;;;;16.73;10.53;;;;;;;39.25;40.84;161541.94;1728849;82;21300;-80
2021/05/02 09:58:19;;;;;;;17.32;10.40;;;;;;;39.25;40.79;161543.31;1762436;81;21253;-80
2021/05/02 10:00:55;;;;;;;18.73;11.97;;;;;;;39.33;40.79;161563.44;1707958;82;21371;-80
2021/05/02 10:03:29;;;;;;;106.07;58.65;;;;;;;39.32;40.83;161562.06;1758167;81;21174;-80
2021/05/02 10:06:07;;;;;;;87.90;50.50;;;;;;;39.32;40.83;161562.06;1696038;82;21403;-79
2021/05/02 10:08:41;;;;;;;76.02;42.25;;;;;;;39.28;40.87;161551.36;1747521;79;21193;-80
2021/05/02 10:11:14;;;;;;;79.12;38.88;;;;;;;39.28;40.95;161551.36;1726929;80;21941;-80
2021/05/02 10:13:46;;;;;;;54.98;29.95;;;;;;;39.34;40.97;161566.13;1743418;81;21300;-81
2021/05/02 10:16:18;;;;;;;54.75;30.35;;;;;;;39.39;41.10;161580.86;1730206;80;21397;-80
2021/05/02 10:18:50;;;;;;;76.07;37.90;;;;;;;39.43;41.13;161591.55;1745676;81;21166;-81
2021/05/02 10:21:23;;;;;;;61.48;32.28;;;;;;;39.41;41.18;161584.86;1733245;82;21693;-80
2021/05/02 10:23:55;;;;;;;48.40;28.40;;;;;;;39.40;41.24;161582.17;1747776;81;21173;-79
2021/05/02 10:26:28;;;;;;;32.78;20.77;;;;;;;39.34;41.38;161567.44;1736690;80;21614;-80
2021/05/02 10:29:00;;;;;;;28.65;19.05;;;;;;;39.37;41.38;161575.48;1751383;81;22655;-82
2021/05/02 10:31:33;;;;;;;22.25;13.60;;;;;;;39.37;41.44;161575.48;1725354;82;21387;-79
2021/05/02 10:34:26;;;;;;;19.55;10.75;;;;;;;39.38;41.57;161576.81;1752254;81;21225;-80
2021/05/02 10:37:33;;;;;;;21.45;12.95;;;;;;;39.49;41.50;161606.31;1735635;80;21178;-80
2021/05/02 10:40:23;;;;;;;25.43;17.17;;;;;;;39.38;41.82;161576.81;1759145;81;21193;-79
2021/05/02 10:43:03;;;;;;;22.10;14.47;;;;;;;39.42;41.93;161587.55;1717782;83;21181;-79
2021/05/02 10:45:39;;;;;;;36.48;23.05;;;;;;;39.44;41.86;161594.23;1694824;83;21336;-80
2021/05/02 10:48:26;;;;;;;73.83;40.23;;;;;;;39.46;41.79;161598.30;1692180;84;21203;-81
2021/05/02 10:50:58;;;;;;;158.57;99.20;;;;;;;39.41;42.02;161584.86;1692120;82;21746;-80
2021/05/02 10:53:31;;;;;;;77.03;48.60;;;;;;;39.41;42.33;161586.19;1691283;84;21206;-81
2021/05/02 10:56:10;;;;;;;72.87;46.15;;;;;;;39.42;42.39;161587.55;1686238;84;21935;-81
2021/05/02 10:58:42;;;;;;;90.25;55.90;;;;;;;39.50;42.40;161610.41;1686060;84;21285;-82
2021/05/02 11:01:26;;;;;;;57.03;36.40;;;;;;;39.66;42.26;161653.28;1686307;84;21321;-81
2021/05/02 11:03:59;;;;;;;158.00;98.25;;;;;;;39.69;42.14;161661.34;1681817;84;21260;-82
2021/05/02 11:06:45;;;;;;;114.60;72.97;;;;;;;39.70;42.13;161662.72;1686699;84;21801;-81
2021/05/02 11:09:21;;;;;;;126.20;72.22;;;;;;;39.71;42.12;161666.72;1692783;84;21241;-84
2021/05/02 11:12:03;;;;;;;57.08;32.95;;;;;;;39.69;42.51;161660.03;1696705;82;21329;-82
2021/05/02 11:14:36;;;;;;;41.00;25.80;;;;;;;39.63;42.61;161643.91;1695518;84;21846;-83
2021/05/02 11:17:19;;;;;;;33.58;19.12;;;;;;;39.65;42.64;161650.59;1694060;84;21274;-83
2021/05/02 11:19:53;;;;;;;27.58;15.68;;;;;;;39.71;42.58;161666.72;1695386;82;21364;-82
2021/05/02 11:22:26;;;;;;;49.90;29.80;;;;;;;39.67;42.63;161655.97;1696968;84;21760;-83
2021/05/02 11:25:02;;;;;;;76.67;39.95;;;;;;;39.70;42.74;161664.03;1692418;82;21194;-83
2021/05/02 11:27:54;;;;;;;35.10;21.65;;;;;;;39.73;42.79;161670.72;1694473;84;21360;-83
2021/05/02 11:30:21;;;;;;;21.55;14.07;;;;;;;39.76;42.81;161678.78;1695690;84;21368;-83
2021/05/02 11:32:55;;;;;;;16.60;10.53;;;;;;;39.78;42.78;161684.16;1691959;84;21250;-83
2021/05/02 11:35:43;;;;;;;16.12;10.08;;;;;;;39.85;42.68;161704.28;1689029;84;21380;-82
2021/05/02 11:38:17;;;;;;;18.42;8.75;;;;;;;39.86;42.67;161706.97;1684707;84;21226;-83
2021/05/02 11:41:02;;;;;;;16.50;11.10;;;;;;;39.85;42.79;161702.91;1689767;84;21282;-82
2021/05/02 11:43:34;;;;;;;19.85;10.95;;;;;;;39.84;43.02;161700.22;1686830;84;21253;-83
2021/05/02 11:46:16;;;;;;;23.62;13.25;;;;;;;39.84;43.33;161701.59;1694989;83;21190;-83
2021/05/02 11:48:43;;;;;;;28.38;15.55;;;;;;;39.85;43.26;161702.91;1692573;83;21229;-82
2021/05/02 11:51:23;;;;;;;39.25;21.82;;;;;;;39.86;43.26;161706.97;1695186;82;21219;-84
2021/05/02 11:53:58;;;;;;;26.05;15.75;;;;;;;39.85;43.24;161704.28;1695297;82;21407;-82
2021/05/02 11:56:35;;;;;;;29.85;18.92;;;;;;;39.82;42.97;161696.22;1693959;82;21427;-83
2021/05/02 11:59:09;;;;;;;24.90;16.15;;;;;;;39.79;43.05;161686.84;1691706;84;21372;-83